Time;durP1;ratioP1;P1;durP2;ratioP2;P2;SDS_P1;SDS_P2;PMS_P1;PMS_P2;Temp;Humidity;BMP_temperature;BMP_pressure;BME280_temperature;BME280_humidity;BME280_pressure;Samples;Min_cycle;Max_cycle;Signal;HPM_P1;HPM_P2
2022/01/31 00:00:00;;;;;;;;;2.00;2.00;;;;;15.88;51.70;101401.63;4993857;28;9533;-84
2022/01/31 00:02:25;;;;;;;;;2.00;2.00;;;;;15.88;51.98;101399.00;4993730;28;10036;-84
2022/01/31 00:04:50;;;;;;;;;4.25;3.25;;;;;15.84;51.59;101378.78;4993419;28;8780;-84
2022/01/31 00:07:16;;;;;;;;;2.00;2.00;;;;;15.86;51.96;101377.03;4993560;28;8780;-84
2022/01/31 00:09:43;;;;;;;;;2.00;2.00;;;;;15.85;51.55;101359.47;4994080;28;8808;-83
2022/01/31 00:12:13;;;;;;;;;3.00;2.00;;;;;15.90;51.67;101344.59;4994820;28;8853;-83
2022/01/31 00:14:42;;;;;;;;;3.00;1.75;;;;;15.85;51.65;101341.06;4995272;28;9396;-84
2022/01/31 00:17:09;;;;;;;;;3.25;3.25;;;;;15.82;52.09;101336.63;4993326;28;9493;-84
2022/01/31 00:19:36;;;;;;;;;1.00;1.00;;;;;15.88;51.83;101346.34;4993171;28;9496;-84
2022/01/31 00:22:02;;;;;;;;;3.00;3.00;;;;;15.85;51.70;101328.78;4996990;28;9426;-85
2022/01/31 00:24:27;;;;;;;;;2.00;2.00;;;;;15.82;51.88;101305.03;4993127;28;9416;-85
2022/01/31 00:26:52;;;;;;;;;2.00;1.75;;;;;15.87;51.77;101308.59;4993014;28;8780;-85
2022/01/31 00:29:17;;;;;;;;;3.00;3.00;;;;;15.85;51.85;101293.66;4996929;28;8832;-85
2022/01/31 00:31:43;;;;;;;;;2.00;2.00;;;;;15.85;51.78;101283.13;5012770;28;8589;-85
2022/01/31 00:34:08;;;;;;;;;2.25;2.25;;;;;15.86;51.90;101284.88;5011421;28;8864;-84
2022/01/31 00:36:34;;;;;;;;;2.00;2.00;;;;;15.86;51.90;101275.22;5012728;28;8941;-84
2022/01/31 00:38:59;;;;;;;;;3.00;3.00;;;;;15.85;51.67;101257.69;5012889;28;8790;-84
2022/01/31 00:41:24;;;;;;;;;3.00;3.00;;;;;15.82;51.81;101244.47;5012208;28;8786;-84
2022/01/31 00:44:02;;;;;;;;;2.00;2.00;;;;;15.86;52.08;101235.72;5013639;28;8774;-85
2022/01/31 00:46:40;;;;;;;;;2.00;2.00;;;;;15.81;51.83;101212.88;5012530;28;9554;-86
2022/01/31 00:49:12;;;;;;;;;4.00;4.00;;;;;15.94;51.89;101212.06;5012586;28;9400;-87
2022/01/31 00:51:37;;;;;;;;;2.00;2.00;;;;;15.90;52.04;101203.28;5012909;28;9585;-87
2022/01/31 00:54:02;;;;;;;;;4.00;2.50;;;;;15.89;52.11;101204.19;5011891;28;9560;-86
2022/01/31 00:56:27;;;;;;;;;3.50;3.00;;;;;15.80;51.91;101184.78;5012662;28;8786;-87
2022/01/31 00:58:53;;;;;;;;;2.50;1.75;;;;;15.88;51.85;101172.56;5012543;28;8818;-88
2022/01/31 01:01:18;;;;;;;;;3.00;3.00;;;;;15.82;52.05;101144.44;5012047;28;8855;-87
2022/01/31 01:03:43;;;;;;;;;3.00;3.00;;;;;15.91;52.06;101162.03;5012774;28;8782;-87
2022/01/31 01:06:08;;;;;;;;;3.00;3.00;;;;;15.83;52.00;101140.03;5011971;28;8782;-86
2022/01/31 01:08:39;;;;;;;;;2.50;2.00;;;;;15.87;52.06;101139.19;5012045;28;9542;-86
2022/01/31 01:11:05;;;;;;;;;3.50;2.00;;;;;15.84;52.01;101124.28;5011919;28;8832;-87
2022/01/31 01:13:30;;;;;;;;;2.75;2.00;;;;;15.90;51.62;101112.88;5012322;28;9573;-87
2022/01/31 01:15:55;;;;;;;;;3.50;2.50;;;;;15.84;51.86;101094.44;5011650;28;8789;-86
2022/01/31 01:18:21;;;;;;;;;1.00;1.00;;;;;15.86;51.83;101100.56;5012048;28;9361;-86
2022/01/31 01:20:46;;;;;;;;;2.50;2.50;;;;;15.89;51.98;101082.16;5012367;28;8810;-85
2022/01/31 01:23:11;;;;;;;;;1.00;1.00;;;;;15.89;52.09;101075.16;5011655;28;8771;-89
2022/01/31 01:25:37;;;;;;;;;1.75;1.75;;;;;15.85;52.13;101070.75;5012041;28;8950;-89
2022/01/31 01:28:02;;;;;;;;;2.75;2.00;;;;;15.85;52.03;101085.66;5011878;28;8793;-89
2022/01/31 01:30:28;;;;;;;;;1.75;1.75;;;;;15.88;51.92;101069.88;5011650;28;8846;-89
2022/01/31 01:35:21;;;;;;;;;2.00;2.00;;;;;15.81;51.95;101060.19;5011721;28;8786;-88
2022/01/31 01:37:47;;;;;;;;;2.25;2.00;;;;;15.87;52.00;101062.84;5022753;28;9476;-87
2022/01/31 01:40:12;;;;;;;;;2.00;2.00;;;;;15.86;51.69;101051.41;5012950;28;8767;-89
2022/01/31 01:42:40;;;;;;;;;2.50;2.50;;;;;15.86;51.87;101043.53;5011278;28;8790;-88
2022/01/31 01:45:06;;;;;;;;;1.33;1.33;;;;;15.84;52.00;101040.03;5011248;28;8916;-88
2022/01/31 01:47:31;;;;;;;;;2.00;2.00;;;;;15.81;52.10;101025.97;5012100;28;10331;-88
2022/01/31 01:49:56;;;;;;;;;2.00;2.00;;;;;15.82;51.65;101023.31;5011535;28;8980;-88
2022/01/31 01:52:22;;;;;;;;;5.00;2.25;;;;;15.88;51.76;101022.47;5011729;28;8804;-88
2022/01/31 01:54:49;;;;;;;;;2.00;2.00;;;;;15.87;51.85;101026.84;5011945;28;8798;-88
2022/01/31 01:57:15;;;;;;;;;2.50;2.50;;;;;15.93;51.73;101016.31;5010985;28;8853;-88
2022/01/31 01:59:41;;;;;;;;;2.75;2.00;;;;;15.89;51.60;100998.78;5011768;28;9478;-88
2022/01/31 02:02:07;;;;;;;;;0.75;0.75;;;;;15.90;51.71;101003.16;5011470;28;9411;-88
2022/01/31 02:04:36;;;;;;;;;2.00;1.25;;;;;15.86;52.06;100996.13;5011874;28;8769;-88
2022/01/31 02:07:02;;;;;;;;;1.00;1.00;;;;;15.82;51.66;100986.47;5011630;28;9473;-87
2022/01/31 02:09:30;;;;;;;;;2.50;2.00;;;;;15.78;51.66;100983.84;5011063;28;10163;-88
2022/01/31 02:11:57;;;;;;;;;2.00;2.00;;;;;15.81;51.75;100984.72;5011332;28;9416;-87
2022/01/31 02:14:25;;;;;;;;;1.25;1.25;;;;;15.83;51.94;100982.97;5011588;28;10152;-87
2022/01/31 02:16:51;;;;;;;;;1.00;0.75;;;;;15.93;51.66;100974.19;5011588;28;9319;-89
2022/01/31 02:19:18;;;;;;;;;2.00;2.00;;;;;15.93;51.42;100976.84;5010957;28;9425;-87
2022/01/31 02:21:47;;;;;;;;;1.00;1.00;;;;;15.94;51.52;100981.22;5011779;28;10152;-88
2022/01/31 02:24:13;;;;;;;;;2.00;2.00;;;;;15.84;51.70;100979.47;5010571;28;9460;-87
2022/01/31 02:26:38;;;;;;;;;2.75;2.25;;;;;15.76;51.86;100962.78;5011524;28;9559;-87
2022/01/31 02:29:05;;;;;;;;;3.50;2.00;;;;;15.91;51.53;100983.88;5011298;28;8782;-89
2022/01/31 02:31:31;;;;;;;;;2.50;1.00;;;;;15.85;51.80;100980.34;5012307;28;8840;-88
2022/01/31 02:33:56;;;;;;;;;1.25;1.25;;;;;15.90;51.48;100963.66;5014702;28;9459;-87
2022/01/31 02:36:24;;;;;;;;;2.75;1.25;;;;;15.75;51.73;100954.84;5023081;28;8786;-88
2022/01/31 02:38:50;;;;;;;;;1.25;1.25;;;;;15.92;51.31;100947.88;5011865;28;8805;-88
2022/01/31 02:41:15;;;;;;;;;1.75;1.75;;;;;15.88;51.57;100944.38;5011105;28;9409;-88
2022/01/31 02:43:40;;;;;;;;;2.75;2.00;;;;;15.86;51.37;100934.69;5011454;28;8790;-88
2022/01/31 02:46:11;;;;;;;;;3.00;1.50;;;;;15.87;51.40;100931.19;5010752;28;8762;-88
2022/01/31 02:48:37;;;;;;;;;1.00;1.00;;;;;15.86;51.43;100918.91;5012066;28;8884;-88
2022/01/31 02:51:08;;;;;;;;;2.25;1.00;;;;;15.84;51.46;100933.81;5011710;28;9661;-88
2022/01/31 02:53:40;;;;;;;;;3.75;1.75;;;;;15.85;51.62;100936.47;5010838;28;8774;-88
2022/01/31 02:56:06;;;;;;;;;2.25;1.25;;;;;15.82;51.45;100928.53;5011312;28;9464;-87
2022/01/31 02:58:31;;;;;;;;;1.75;1.75;;;;;15.84;51.42;100937.34;5013874;28;9395;-88
2022/01/31 03:00:58;;;;;;;;;0.25;0.25;;;;;15.86;51.19;100937.31;5015221;28;8805;-87
2022/01/31 03:03:24;;;;;;;;;1.50;1.50;;;;;15.78;51.58;100924.16;5027185;28;8859;-88
2022/01/31 03:05:49;;;;;;;;;3.00;2.00;;;;;15.79;51.68;100922.41;5015203;28;9389;-88
2022/01/31 03:08:15;;;;;;;;;2.00;2.00;;;;;15.79;51.51;100930.28;5014146;28;9525;-87
2022/01/31 03:10:40;;;;;;;;;1.00;1.00;;;;;15.86;51.46;100919.78;5021342;23;8852;-87
2022/01/31 03:15:33;;;;;;;;;1.75;1.75;;;;;15.84;51.15;100923.28;5012729;28;8847;-89
2022/01/31 03:17:59;;;;;;;;;1.00;1.00;;;;;15.90;51.06;100908.38;5015011;28;9497;-89
2022/01/31 03:20:25;;;;;;;;;1.00;1.00;;;;;15.85;51.05;100919.78;5014425;28;8790;-90
2022/01/31 03:22:51;;;;;;;;;2.00;1.00;;;;;15.82;51.04;100917.16;5018193;28;8791;-90
2022/01/31 03:25:17;;;;;;;;;3.00;1.67;;;;;15.78;51.37;100912.78;5017374;28;8791;-89
2022/01/31 03:27:44;;;;;;;;;2.67;2.00;;;;;15.86;51.14;100909.25;5017454;28;9322;-89
2022/01/31 03:30:16;;;;;;;;;1.33;1.33;;;;;15.73;51.24;100889.06;5004000;28;11612;-88
2022/01/31 03:32:42;;;;;;;;;1.00;1.00;;;;;15.83;50.91;100892.56;4997339;28;9492;-89
2022/01/31 03:35:08;;;;;;;;;2.00;2.00;;;;;15.75;51.20;100902.22;4997878;28;9440;-88
2022/01/31 03:37:34;;;;;;;;;0.25;0.25;;;;;15.80;51.37;100908.38;4999049;28;8789;-88
2022/01/31 03:40:00;;;;;;;;;1.00;1.00;;;;;15.64;51.16;100870.63;4997281;28;9432;-90
2022/01/31 03:42:25;;;;;;;;;0.00;0.00;;;;;15.60;51.23;100868.84;4996307;28;9361;-89
2022/01/31 03:44:51;;;;;;;;;0.33;0.33;;;;;15.82;51.22;100902.22;4998146;28;8805;-89
2022/01/31 03:47:21;;;;;;;;;0.00;0.00;;;;;15.87;51.06;100896.97;4998251;28;8777;-89
2022/01/31 03:52:21;;;;;;;;;1.33;0.67;;;;;15.72;50.94;100883.78;5535701;23;9434;-89
2022/01/31 03:54:46;;;;;;;;;2.00;2.00;;;;;15.74;50.90;100866.25;5017580;28;9319;-90
2022/01/31 03:57:12;;;;;;;;;0.50;0.50;;;;;15.70;51.12;100870.66;5017706;28;8794;-90
2022/01/31 03:59:37;;;;;;;;;1.50;0.75;;;;;15.73;51.01;100867.13;5018072;28;9548;-90
2022/01/31 04:02:06;;;;;;;;;1.00;1.00;;;;;15.78;50.80;100878.53;5018371;28;8762;-90
2022/01/31 04:04:31;;;;;;;;;1.00;1.00;;;;;15.74;50.76;100863.63;5017667;28;8778;-89
2022/01/31 04:06:56;;;;;;;;;0.00;0.00;;;;;15.69;51.00;100870.63;5017802;28;10192;-90
2022/01/31 04:09:22;;;;;;;;;1.50;1.00;;;;;15.83;50.61;100868.88;5017095;28;8782;-90
2022/01/31 04:11:49;;;;;;;;;2.00;1.00;;;;;15.85;50.58;100862.75;5016745;28;8806;-89
2022/01/31 04:14:18;;;;;;;;;1.67;1.67;;;;;15.80;50.75;100875.03;5017217;28;8754;-90
2022/01/31 04:16:43;;;;;;;;;1.50;1.50;;;;;15.77;50.77;100864.50;5017894;28;9453;-91
2022/01/31 04:19:08;;;;;;;;;1.00;1.00;;;;;15.76;50.64;100857.47;5017722;28;9535;-90
2022/01/31 04:21:34;;;;;;;;;0.50;0.50;;;;;15.79;50.47;100854.84;5017226;28;8767;-90
2022/01/31 04:23:59;;;;;;;;;1.50;1.50;;;;;15.81;50.74;100849.59;5017255;28;8781;-90
2022/01/31 04:26:32;;;;;;;;;1.00;0.00;;;;;15.27;50.47;100772.31;5036512;22;8815;-90
2022/01/31 04:29:08;;;;;;;;;1.75;1.00;;;;;15.50;50.65;100809.22;5034696;28;8804;-90
2022/01/31 04:31:39;;;;;;;;;1.00;0.75;;;;;15.63;50.57;100829.41;4996764;28;9347;-90
2022/01/31 04:34:04;;;;;;;;;1.00;1.00;;;;;15.71;50.63;100838.16;4996186;28;9325;-91
2022/01/31 04:36:29;;;;;;;;;2.50;2.00;;;;;15.68;50.46;100838.16;4995162;28;9565;-90
2022/01/31 04:41:36;;;;;;;;;1.00;1.00;;;;;15.62;50.10;100808.34;5489382;23;8857;-90
2022/01/31 04:46:52;;;;;;;;;1.50;1.00;;;;;15.47;50.15;100785.50;5043580;22;9623;-89
2022/01/31 04:49:18;;;;;;;;;0.00;0.00;;;;;15.35;50.07;100775.84;5014689;28;9403;-90
2022/01/31 04:51:44;;;;;;;;;2.00;0.75;;;;;15.39;50.04;100800.38;5015441;28;9356;-93
2022/01/31 04:54:10;;;;;;;;;0.75;0.75;;;;;15.82;50.12;100919.81;5027810;23;10200;-92
2022/01/31 04:56:36;;;;;;;;;3.00;2.00;;;;;15.76;50.10;100869.75;5034409;28;8913;-92
2022/01/31 04:59:02;;;;;;;;;1.00;1.00;;;;;15.73;50.19;100849.59;5034077;28;9519;-91
2022/01/31 05:01:28;;;;;;;;;2.33;1.00;;;;;15.72;50.21;100844.31;5033550;28;9336;-90
2022/01/31 05:03:53;;;;;;;;;1.00;1.00;;;;;15.68;50.17;100868.88;5033741;28;9405;-91
2022/01/31 05:06:28;;;;;;;;;2.00;2.00;;;;;15.72;50.17;100845.19;5033967;28;8801;-90
2022/01/31 05:08:53;;;;;;;;;1.33;0.67;;;;;15.72;50.11;100845.19;5033228;28;8809;-89
2022/01/31 05:11:19;;;;;;;;;2.00;0.67;;;;;15.62;50.27;100845.19;5033794;28;9275;-90
2022/01/31 05:13:46;;;;;;;;;1.33;0.33;;;;;15.73;50.05;100846.06;5032695;28;8782;-91
2022/01/31 05:16:11;;;;;;;;;0.00;0.00;;;;;15.73;50.23;100841.69;5033475;28;8798;-91
2022/01/31 05:18:38;;;;;;;;;2.00;2.00;;;;;15.66;50.34;100826.78;5032708;28;9222;-90
2022/01/31 05:21:05;;;;;;;;;1.00;0.00;;;;;15.78;50.26;100825.91;5031995;28;8783;-91
2022/01/31 05:23:30;;;;;;;;;2.33;1.33;;;;;15.78;50.11;100820.63;5033414;28;9883;-91
2022/01/31 05:25:56;;;;;;;;;1.00;0.00;;;;;15.73;50.16;100818.00;5033442;28;9026;-92
2022/01/31 05:28:21;;;;;;;;;1.33;1.00;;;;;15.67;50.14;100814.50;5033815;28;8778;-90
2022/01/31 05:30:46;;;;;;;;;0.00;0.00;;;;;15.59;50.13;100801.34;5033845;28;8826;-91
2022/01/31 05:33:11;;;;;;;;;1.67;1.00;;;;;15.65;50.38;100813.59;5032747;28;9518;-91
2022/01/31 05:35:37;;;;;;;;;1.00;0.00;;;;;15.63;50.47;100808.34;5033380;28;8837;-91
2022/01/31 05:38:03;;;;;;;;;1.00;1.00;;;;;15.65;50.25;100813.59;5033399;28;8788;-90
2022/01/31 05:40:29;;;;;;;;;1.00;0.50;;;;;15.70;50.13;100818.00;5033065;28;8945;-90
2022/01/31 05:42:54;;;;;;;;;0.67;0.67;;;;;15.75;50.02;100816.22;5032798;28;9415;-90
2022/01/31 05:45:19;;;;;;;;;1.00;0.00;;;;;15.69;50.28;100810.09;5034515;28;8779;-90
2022/01/31 05:47:44;;;;;;;;;2.00;1.00;;;;;15.71;49.98;100808.34;5035211;28;8779;-91
2022/01/31 05:50:10;;;;;;;;;0.50;0.50;;;;;15.82;49.74;100833.78;5035176;28;8822;-91
2022/01/31 05:52:35;;;;;;;;;0.00;0.00;;;;;15.79;49.69;100822.38;5047838;28;8814;-90
2022/01/31 05:55:07;;;;;;;;;0.25;0.00;;;;;15.69;50.28;100799.56;5033877;28;8806;-91
2022/01/31 05:57:33;;;;;;;;;1.00;0.00;;;;;15.70;50.00;100799.56;5524519;23;8830;-89
2022/01/31 05:59:59;;;;;;;;;1.00;1.00;;;;;15.63;50.23;100810.97;5013752;28;9192;-89
2022/01/31 06:02:24;;;;;;;;;1.00;0.00;;;;;15.73;49.94;100809.22;5013858;28;8781;-92
2022/01/31 06:04:49;;;;;;;;;0.67;0.67;;;;;15.71;49.99;100814.47;5013712;28;9536;-91
2022/01/31 06:07:17;;;;;;;;;1.00;1.00;;;;;15.67;50.04;100798.69;5014914;28;8773;-91
2022/01/31 06:09:45;;;;;;;;;1.00;0.00;;;;;15.69;49.92;100804.81;5016740;28;8785;-91
2022/01/31 06:12:12;;;;;;;;;3.00;1.00;;;;;15.69;49.67;100810.09;5016388;28;9221;-91
2022/01/31 06:14:37;;;;;;;;;1.00;1.00;;;;;15.74;49.74;100792.56;5016576;28;9180;-90
2022/01/31 06:17:03;;;;;;;;;2.00;1.00;;;;;15.63;49.88;100794.31;5016411;28;9327;-90
2022/01/31 06:19:31;;;;;;;;;2.00;0.00;;;;;15.74;49.68;100798.69;5017366;28;8773;-90
2022/01/31 06:21:59;;;;;;;;;1.00;1.00;;;;;15.69;49.66;100808.34;5015961;28;8781;-91
2022/01/31 06:24:25;;;;;;;;;1.00;1.00;;;;;15.69;49.72;100821.50;5038853;23;9144;-91
2022/01/31 06:26:51;;;;;;;;;1.00;1.00;;;;;15.65;49.96;100803.06;5035025;28;9372;-90
2022/01/31 06:29:16;;;;;;;;;0.00;0.00;;;;;15.71;49.56;100821.50;5030294;28;8828;-91
2022/01/31 06:31:41;;;;;;;;;0.33;0.33;;;;;15.65;49.56;100843.44;5013172;28;8871;-92
2022/01/31 06:34:06;;;;;;;;;0.33;0.33;;;;;15.69;49.56;100860.97;5016969;28;8784;-93
2022/01/31 06:36:32;;;;;;;;;0.67;0.67;;;;;15.66;49.64;100853.09;5016199;28;8812;-91
2022/01/31 06:38:57;;;;;;;;;1.00;0.33;;;;;15.66;49.43;100836.41;5015749;28;8792;-91
2022/01/31 06:41:23;;;;;;;;;0.75;0.75;;;;;15.64;49.67;100846.03;5015705;28;8796;-90
2022/01/31 06:43:49;;;;;;;;;1.00;1.00;;;;;15.70;49.88;100859.22;5015666;28;8907;-91
2022/01/31 06:46:15;;;;;;;;;1.00;0.00;;;;;15.68;49.69;100860.97;5014815;28;8801;-91
2022/01/31 06:48:40;;;;;;;;;1.00;1.00;;;;;15.66;49.54;100853.09;5017571;28;9340;-90
2022/01/31 06:51:06;;;;;;;;;1.00;1.00;;;;;15.70;49.43;100840.81;5016830;28;8878;-90
2022/01/31 06:53:31;;;;;;;;;2.67;1.33;;;;;15.61;49.63;100859.22;5015396;28;8795;-81
2022/01/31 06:55:57;;;;;;;;;1.25;1.25;;;;;15.71;54.46;100832.03;5015260;28;8760;-88
2022/01/31 06:58:23;;;;;;;;;2.00;2.00;;;;;15.74;53.02;100825.03;5014984;28;9548;-87
2022/01/31 07:00:49;;;;;;;;;4.33;1.00;;;;;15.88;54.40;100833.78;5015515;28;9175;-88
2022/01/31 07:03:17;;;;;;;;;5.67;4.67;;;;;16.09;59.85;100859.22;5014763;28;9288;-87
2022/01/31 07:05:44;;;;;;;;;4.67;2.00;;;;;16.11;61.03;100865.38;5014493;28;8868;-90
2022/01/31 07:08:10;;;;;;;;;3.33;3.00;;;;;16.23;64.87;100854.81;5014085;28;9097;-87
2022/01/31 07:10:37;;;;;;;;;5.00;2.00;;;;;16.28;66.61;100865.34;5014307;28;9394;-86
2022/01/31 07:13:11;;;;;;;;;9.00;4.75;;;;;16.41;68.19;100869.72;5013972;28;9263;-80
2022/01/31 07:15:36;;;;;;;;;7.00;3.50;;;;;16.36;67.75;100845.13;5013656;28;9303;-78
2022/01/31 07:18:02;;;;;;;;;2.50;1.25;;;;;16.34;66.21;100868.88;5014009;28;9475;-85
2022/01/31 07:22:58;;;;;;;;;2.50;2.50;;;;;16.09;67.42;100829.38;5199967;23;8869;-83
2022/01/31 07:25:34;;;;;;;;;5.33;4.67;;;;;16.26;67.36;100840.78;5024154;28;8825;-82
2022/01/31 07:28:19;;;;;;;;;5.00;2.33;;;;;16.22;66.42;100842.53;5032039;28;9422;-82
2022/01/31 07:30:47;;;;;;;;;3.00;2.75;;;;;16.18;65.59;100850.44;5034223;28;9325;-83
2022/01/31 07:33:13;;;;;;;;;1.33;1.00;;;;;16.20;65.54;100890.81;5032180;28;9343;-83
2022/01/31 07:35:45;;;;;;;;;4.00;2.00;;;;;16.24;65.11;100911.00;5031898;28;9472;-82
2022/01/31 07:38:11;;;;;;;;;2.00;2.00;;;;;16.18;64.30;100900.50;5030894;28;8834;-82
2022/01/31 07:40:37;;;;;;;;;2.00;1.67;;;;;16.16;64.48;100879.41;5032879;28;9340;-83
2022/01/31 07:43:03;;;;;;;;;3.25;1.00;;;;;15.93;63.25;100841.69;5033252;28;8787;-83
2022/01/31 07:45:29;;;;;;;;;1.50;0.00;;;;;16.04;62.87;100871.53;5033060;28;9583;-83
2022/01/31 07:47:54;;;;;;;;;2.00;2.00;;;;;16.05;62.90;100872.38;5033174;28;8771;-83
2022/01/31 07:50:20;;;;;;;;;2.33;2.00;;;;;16.04;62.59;100899.63;5032211;28;8834;-83
2022/01/31 07:52:45;;;;;;;;;2.75;1.25;;;;;16.07;62.38;100894.34;5032969;28;8807;-84
2022/01/31 07:55:12;;;;;;;;;3.67;2.00;;;;;15.91;61.81;100875.03;5032498;28;8810;-86
2022/01/31 07:57:38;;;;;;;;;3.33;2.00;;;;;16.07;61.82;100932.09;5032751;28;8916;-86
2022/01/31 08:00:06;;;;;;;;;1.75;1.00;;;;;16.04;61.35;100884.69;5032512;28;9342;-86
2022/01/31 08:02:31;;;;;;;;;2.00;2.00;;;;;16.00;61.00;100889.97;5032400;28;9461;-84
2022/01/31 08:04:59;;;;;;;;;2.00;2.00;;;;;15.97;60.76;100867.16;5032661;28;9352;-86
2022/01/31 08:07:25;;;;;;;;;1.67;1.00;;;;;15.87;60.25;100868.00;5032295;28;8771;-84
2022/01/31 08:09:50;;;;;;;;;2.00;1.00;;;;;16.05;60.15;100901.34;5032183;28;9195;-83
2022/01/31 08:12:16;;;;;;;;;1.00;1.00;;;;;16.01;59.82;100908.38;5032550;28;8782;-84
2022/01/31 08:14:43;;;;;;;;;2.00;2.00;;;;;16.02;59.85;100936.47;5031834;28;8811;-84
2022/01/31 08:17:08;;;;;;;;;2.00;2.00;;;;;15.97;59.47;100925.09;5012167;28;8793;-84
2022/01/31 08:19:33;;;;;;;;;2.00;1.00;;;;;15.94;59.29;100915.41;5012909;28;9351;-84
2022/01/31 08:21:59;;;;;;;;;3.00;1.00;;;;;15.99;59.38;100927.69;5012308;28;9682;-85
2022/01/31 08:24:25;;;;;;;;;1.00;1.00;;;;;15.94;59.55;100939.09;5011562;28;8781;-85
2022/01/31 08:26:50;;;;;;;;;1.00;1.00;;;;;15.93;59.27;100936.47;5013446;28;8790;-84
2022/01/31 08:29:22;;;;;;;;;1.00;1.00;;;;;15.89;58.74;100935.59;5015813;28;8803;-86
2022/01/31 08:31:52;;;;;;;;;1.00;1.00;;;;;15.91;58.56;100922.41;5032125;28;9543;-85
2022/01/31 08:34:23;;;;;;;;;4.33;3.00;;;;;15.90;58.10;100934.69;5030577;28;9220;-84
2022/01/31 08:36:48;;;;;;;;;1.75;1.00;;;;;15.81;58.06;100928.56;5032268;28;9117;-85
2022/01/31 08:39:19;;;;;;;;;2.50;2.00;;;;;15.85;57.56;100927.69;5032320;28;10253;-83
2022/01/31 08:41:47;;;;;;;;;2.00;2.00;;;;;15.68;57.55;100897.81;5032327;28;8803;-83
2022/01/31 08:44:17;;;;;;;;;2.00;2.00;;;;;15.85;57.28;100927.69;5031603;28;10182;-83
2022/01/31 08:46:43;;;;;;;;;2.00;2.00;;;;;15.81;57.07;100920.66;5031802;28;9341;-86
2022/01/31 08:49:09;;;;;;;;;2.00;1.50;;;;;15.79;57.01;100935.56;5031693;28;9356;-82
2022/01/31 08:51:35;;;;;;;;;1.00;1.00;;;;;15.81;56.87;100961.03;5029724;28;8826;-86
2022/01/31 08:54:03;;;;;;;;;3.00;1.00;;;;;15.69;57.13;100932.03;5031799;28;9415;-86
2022/01/31 08:56:29;;;;;;;;;1.33;0.67;;;;;15.79;56.64;100938.19;5032885;28;9411;-85
2022/01/31 08:58:56;;;;;;;;;1.00;1.00;;;;;15.77;56.60;100956.63;5031588;28;9402;-87
2022/01/31 09:01:22;;;;;;;;;3.00;1.50;;;;;15.78;56.68;100947.00;5031426;28;8849;-85
2022/01/31 09:06:22;;;;;;;;;2.75;2.00;;;;;15.78;56.51;100950.47;5023293;28;9513;-89
2022/01/31 09:08:47;;;;;;;;;2.00;2.00;;;;;15.75;56.21;100991.72;5017781;28;9458;-89
2022/01/31 09:11:14;;;;;;;;;1.00;0.00;;;;;15.80;56.11;100982.09;5019339;28;9609;-90
2022/01/31 09:13:40;;;;;;;;;2.75;1.00;;;;;15.79;56.00;100973.31;5019262;28;8841;-89
2022/01/31 09:16:06;;;;;;;;;2.50;1.25;;;;;15.82;56.00;100993.50;5027456;28;9431;-92
2022/01/31 09:18:32;;;;;;;;;2.00;1.50;;;;;15.71;55.56;101003.97;5029869;28;9580;-90
2022/01/31 09:20:58;;;;;;;;;2.00;2.00;;;;;15.73;55.70;100967.16;5028204;28;9572;-89
2022/01/31 09:23:27;;;;;;;;;2.25;1.25;;;;;15.75;55.59;100966.25;5036097;28;8831;-91
2022/01/31 09:25:56;;;;;;;;;3.50;2.00;;;;;15.79;55.37;100980.31;5038177;28;9432;-88
2022/01/31 09:28:21;;;;;;;;;5.00;2.00;;;;;15.81;55.42;100994.38;5022428;28;9674;-86
2022/01/31 09:30:47;;;;;;;;;0.50;0.50;;;;;15.78;55.04;100989.13;5018720;28;9593;-91
2022/01/31 09:33:14;;;;;;;;;6.50;3.50;;;;;15.77;54.84;100997.88;5027863;28;8860;-85
2022/01/31 09:35:40;;;;;;;;;2.50;1.25;;;;;15.82;55.09;100990.88;5031334;28;9681;-89
2022/01/31 09:38:08;;;;;;;;;5.00;1.25;;;;;15.81;55.02;101005.78;5025109;28;10194;-83
2022/01/31 09:40:34;;;;;;;;;2.50;2.00;;;;;15.84;55.09;101003.16;5015996;28;9517;-87
2022/01/31 09:48:32;;;;;;;;;2.00;2.00;;;;;15.86;55.28;101033.00;5028354;28;9657;-90
2022/01/31 09:50:59;;;;;;;;;2.50;2.00;;;;;15.81;55.17;101021.59;5025987;28;10278;-86
2022/01/31 09:53:24;;;;;;;;;5.00;3.75;;;;;15.83;55.83;101032.09;5030738;28;9668;-93
2022/01/31 09:55:52;;;;;;;;;3.75;2.00;;;;;15.78;55.72;101026.81;5023261;28;9779;-80
2022/01/31 09:58:18;;;;;;;;;2.25;2.00;;;;;15.76;57.17;101052.28;5023936;28;8810;-86
2022/01/31 10:00:43;;;;;;;;;3.25;2.25;;;;;15.85;56.73;101039.16;5015107;28;9372;-88
2022/01/31 10:03:10;;;;;;;;;1.50;1.50;;;;;15.90;56.93;101073.38;5010954;28;8919;-87
2022/01/31 10:05:35;;;;;;;;;2.00;1.75;;;;;15.94;58.56;101093.56;5027190;28;8821;-89
2022/01/31 10:08:12;;;;;;;;;3.00;1.50;;;;;15.82;58.09;101069.84;5017225;28;9365;-82
2022/01/31 10:10:41;;;;;;;;;2.00;2.00;;;;;15.94;58.04;101088.31;5020604;28;8893;-85
2022/01/31 10:16:27;;;;;;;;;3.50;3.00;;;;;15.87;58.36;101084.78;5027663;28;9387;-87
2022/01/31 10:19:07;;;;;;;;;3.00;2.50;;;;;15.94;58.68;101099.72;5016224;28;9497;-86
2022/01/31 10:21:56;;;;;;;;;3.50;2.25;;;;;15.93;58.20;101103.22;5028815;28;10429;-88
2022/01/31 10:24:23;;;;;;;;;3.50;2.25;;;;;15.93;58.68;101110.28;5033368;28;10364;-86
2022/01/31 10:26:48;;;;;;;;;5.00;3.50;;;;;15.88;58.38;101109.38;5034324;28;10207;-85
2022/01/31 10:29:16;;;;;;;;;3.67;2.00;;;;;15.86;58.70;101108.47;5030101;28;9565;-85
2022/01/31 10:32:03;;;;;;;;;6.25;4.00;;;;;15.92;58.53;101116.41;5018932;28;8880;-86
2022/01/31 10:34:31;;;;;;;;;5.75;3.00;;;;;15.89;57.94;101117.28;5028469;28;10426;-89
2022/01/31 10:37:02;;;;;;;;;4.00;4.00;;;;;15.89;58.06;101113.75;5012328;28;9729;-89
2022/01/31 10:55:05;;;;;;;;;3.00;2.00;;;;;15.78;57.43;101132.13;5033010;28;9591;-88
2022/01/31 10:57:01;;;;;;;;;0.00;0.00;;;;;15.80;56.72;101132.13;5023997;28;9428;-87
2022/01/31 10:59:35;;;;;;;;;3.75;3.75;;;;;15.75;56.88;101131.22;5031195;28;9306;-85
2022/01/31 11:02:08;;;;;;;;;4.50;3.25;;;;;15.82;56.85;101173.38;5001146;28;10492;-88
2022/01/31 11:04:37;;;;;;;;;4.75;3.25;;;;;15.87;56.44;101157.63;5008844;28;9449;-87
2022/01/31 11:07:06;;;;;;;;;3.00;3.00;;;;;15.99;55.93;101152.41;4995732;28;10214;-86
2022/01/31 11:09:32;;;;;;;;;6.50;4.50;;;;;15.97;56.56;101179.63;5006815;28;9695;-87
2022/01/31 11:11:58;;;;;;;;;1.00;0.75;;;;;16.02;55.73;101167.34;5013840;28;9626;-88
2022/01/31 11:14:24;;;;;;;;;3.00;2.75;;;;;15.92;55.68;101171.69;5013136;28;8817;-87
2022/01/31 11:16:49;;;;;;;;;2.50;2.00;;;;;16.01;55.81;101165.59;5012964;28;9526;-86
2022/01/31 11:19:22;;;;;;;;;4.00;2.00;;;;;15.87;55.38;101211.16;5003060;28;11054;-84
2022/01/31 11:21:48;;;;;;;;;6.00;5.00;;;;;16.02;55.49;101193.69;5023664;28;8883;-89
2022/01/31 11:24:22;;;;;;;;;3.50;3.50;;;;;15.96;54.77;101189.28;5021758;28;10669;-87
2022/01/31 11:26:50;;;;;;;;;3.75;1.25;;;;;16.01;54.70;101191.94;5032829;28;9509;-87
2022/01/31 11:29:16;;;;;;;;;3.00;1.00;;;;;16.06;54.44;101198.97;5029777;28;10502;-89
2022/01/31 11:31:43;;;;;;;;;2.75;2.75;;;;;16.00;54.60;101206.84;5032497;28;10315;-88
2022/01/31 11:34:08;;;;;;;;;2.25;2.25;;;;;16.01;54.45;101200.69;5031905;28;10226;-88
2022/01/31 11:36:35;;;;;;;;;2.75;2.75;;;;;15.97;54.37;101211.22;5032283;28;9547;-88
2022/01/31 11:39:05;;;;;;;;;3.25;2.75;;;;;15.98;54.23;101210.34;5041462;28;8876;-89
2022/01/31 11:41:32;;;;;;;;;2.00;2.00;;;;;16.03;54.14;101222.66;5031486;28;10268;-84
2022/01/31 11:44:06;;;;;;;;;3.67;3.67;;;;;15.95;54.17;101204.19;5032310;28;9369;-89
2022/01/31 11:46:33;;;;;;;;;2.00;2.00;;;;;16.01;54.25;101210.38;5033399;28;9444;-89
2022/01/31 11:48:59;;;;;;;;;4.00;2.50;;;;;15.93;54.04;101208.56;5031965;28;9465;-89
2022/01/31 11:51:27;;;;;;;;;5.00;4.00;;;;;15.94;53.96;101201.53;5031367;28;9450;-87
2022/01/31 11:54:06;;;;;;;;;5.00;5.00;;;;;16.00;53.85;101212.13;5043403;28;8819;-88
2022/01/31 11:56:31;;;;;;;;;5.75;3.75;;;;;15.98;54.04;101213.84;5041468;28;9442;-87
2022/01/31 11:58:58;;;;;;;;;4.00;3.00;;;;;16.00;53.64;101227.94;5031946;28;9526;-86
2022/01/31 12:01:28;;;;;;;;;2.00;1.00;;;;;15.89;53.61;101221.72;5031196;28;8827;-88
2022/01/31 12:03:57;;;;;;;;;2.67;2.00;;;;;15.89;53.83;101233.13;5024046;28;9379;-86
2022/01/31 12:06:24;;;;;;;;;4.33;2.67;;;;;15.96;53.66;101241.94;5031529;28;9396;-87
2022/01/31 12:08:52;;;;;;;;;0.67;0.67;;;;;15.91;53.79;101243.66;5028662;28;9401;-87
2022/01/31 12:11:24;;;;;;;;;6.33;2.67;;;;;15.94;53.78;101257.72;5029860;28;9262;-87